Time;durP1;ratioP1;P1;durP2;ratioP2;P2;SDS_P1;SDS_P2;PMS_P1;PMS_P2;Temp;Humidity;BMP_temperature;BMP_pressure;BME280_temperature;BME280_humidity;BME280_pressure;Samples;Min_cycle;Max_cycle;Signal;HPM_P1;HPM_P2
2022/01/10 00:00:16;;;;;;;2.42;1.30;;;;;;;4.81;74.58;93284.81;5105718;28;20036;-71
2022/01/10 00:02:43;;;;;;;2.28;1.25;;;;;;;4.68;74.97;93273.94;5111883;27;20157;-72
2022/01/10 00:05:08;;;;;;;2.20;1.10;;;;;;;4.70;75.28;93275.44;5122143;27;20119;-71
2022/01/10 00:07:35;;;;;;;2.80;1.30;;;;;;;4.68;75.53;93281.66;5111205;28;20489;-72
2022/01/10 00:10:02;;;;;;;3.05;1.40;;;;;;;4.77;75.28;93278.31;5106274;27;20043;-71
2022/01/10 00:12:27;;;;;;;2.88;1.30;;;;;;;4.86;75.11;93281.88;5114490;27;20416;-71
2022/01/10 00:14:53;;;;;;;2.08;1.27;;;;;;;4.87;74.90;93278.34;5132395;27;20052;-72
2022/01/10 00:17:18;;;;;;;2.70;1.27;;;;;;;4.84;75.00;93279.41;5131375;27;20026;-71
2022/01/10 00:19:44;;;;;;;2.63;1.23;;;;;;;4.89;75.10;93284.19;5131084;27;20390;-71
2022/01/10 00:22:11;;;;;;;2.03;1.05;;;;;;;4.93;74.95;93281.22;5120231;27;20031;-71
2022/01/10 00:24:36;;;;;;;2.55;1.30;;;;;;;4.89;74.97;93274.69;5111748;28;20535;-72
2022/01/10 00:27:02;;;;;;;2.70;1.17;;;;;;;5.00;74.83;93284.09;5112286;28;20039;-72
2022/01/10 00:29:27;;;;;;;2.22;1.30;;;;;;;4.95;74.65;93272.56;5110720;28;20031;-71
2022/01/10 00:31:53;;;;;;;2.20;1.50;;;;;;;5.01;74.77;93284.88;5111452;28;20047;-71
2022/01/10 00:34:19;;;;;;;2.15;1.17;;;;;;;4.98;74.60;93283.38;5093403;28;20493;-71
2022/01/10 00:36:44;;;;;;;2.25;1.20;;;;;;;4.99;74.45;93282.47;5110614;28;20032;-71
2022/01/10 00:39:09;;;;;;;2.22;1.17;;;;;;;4.99;74.41;93279.09;5110359;28;20039;-71
2022/01/10 00:41:36;;;;;;;3.25;1.50;;;;;;;4.99;74.57;93285.03;5110469;28;20407;-72
2022/01/10 00:44:04;;;;;;;2.90;1.70;;;;;;;4.98;74.40;93282.59;5111439;28;20019;-73
2022/01/10 00:46:29;;;;;;;2.80;1.60;;;;;;;4.96;74.93;93277.59;5111365;28;20136;-72
2022/01/10 00:48:55;;;;;;;2.85;1.67;;;;;;;4.90;74.85;93276.34;5111432;28;20492;-72
2022/01/10 00:51:20;;;;;;;2.55;1.70;;;;;;;4.87;75.38;93284.28;5110340;28;20429;-72
2022/01/10 00:53:49;;;;;;;3.08;2.03;;;;;;;4.90;75.39;93272.94;5093379;28;20028;-72
2022/01/10 00:56:15;;;;;;;2.75;1.80;;;;;;;4.90;75.41;93268.63;5113346;27;20405;-73
2022/01/10 00:58:41;;;;;;;2.17;1.30;;;;;;;4.92;75.61;93276.19;5092942;28;20023;-73
2022/01/10 01:01:06;;;;;;;3.45;1.80;;;;;;;4.89;75.64;93274.69;5110218;28;20035;-73
2022/01/10 01:03:32;;;;;;;3.10;1.85;;;;;;;4.81;75.79;93264.25;5111142;28;20028;-73
2022/01/10 01:05:58;;;;;;;3.03;1.90;;;;;;;4.86;75.88;93271.56;5101794;28;20521;-73
2022/01/10 01:08:25;;;;;;;3.08;1.90;;;;;;;4.80;76.08;93267.75;5128726;28;20088;-74
2022/01/10 01:14:10;;;;;;;2.80;1.83;;;;;;;4.88;76.00;93272.28;5118976;27;20046;-73
2022/01/10 01:16:46;;;;;;;3.20;1.90;;;;;;;4.83;76.23;93258.97;5116203;27;20054;-73
2022/01/10 01:24:28;;;;;;;3.78;2.25;;;;;;;4.75;77.17;93257.03;5119804;27;20416;-74
2022/01/10 01:26:53;;;;;;;3.95;2.20;;;;;;;4.77;77.17;93257.75;5096769;28;20035;-72
2022/01/10 01:29:22;;;;;;;7.47;3.03;;;;;;;4.66;77.04;93238.06;5097904;28;20088;-73
2022/01/10 01:31:47;;;;;;;3.03;2.17;;;;;;;4.82;77.16;93259.91;5117668;27;20055;-72
2022/01/10 01:34:14;;;;;;;3.25;2.30;;;;;;;4.83;76.89;93257.22;5129625;27;20080;-73
2022/01/10 01:36:40;;;;;;;4.43;2.20;;;;;;;4.83;76.93;93244.34;5117460;27;20501;-72
2022/01/10 01:39:16;;;;;;;3.28;2.20;;;;;;;4.75;76.67;93233.88;5110459;28;20042;-72
2022/01/10 01:41:42;;;;;;;3.55;2.28;;;;;;;4.80;76.84;93236.88;5099396;28;20027;-73
2022/01/10 01:44:08;;;;;;;3.65;2.25;;;;;;;4.74;76.95;93240.00;5125416;27;20035;-73
2022/01/10 01:46:34;;;;;;;3.35;2.28;;;;;;;4.76;77.30;93242.41;5119548;27;20490;-73
2022/01/10 01:49:00;;;;;;;3.55;2.10;;;;;;;4.80;77.04;93236.88;5129941;27;20106;-72
2022/01/10 01:51:25;;;;;;;4.43;2.13;;;;;;;4.74;77.39;93242.56;5100848;27;20038;-72
2022/01/10 01:53:52;;;;;;;3.88;2.30;;;;;;;4.77;77.26;93238.91;5108348;28;20078;-73
2022/01/10 01:56:18;;;;;;;6.00;2.33;;;;;;;4.75;77.25;93236.47;5114581;27;20490;-72
2022/01/10 01:58:44;;;;;;;4.00;2.10;;;;;;;4.78;77.45;93236.19;5097158;28;20019;-73
2022/01/10 02:01:09;;;;;;;3.30;2.10;;;;;;;4.84;77.17;93238.25;5117820;27;20035;-73
2022/01/10 02:03:38;;;;;;;2.95;1.90;;;;;;;4.84;76.72;93233.09;5125686;27;20038;-72
2022/01/10 02:06:04;;;;;;;5.68;2.40;;;;;;;4.89;76.67;93236.09;5129961;27;20432;-72
2022/01/10 02:08:29;;;;;;;3.28;2.13;;;;;;;4.88;76.50;93223.38;5122566;27;20422;-72
2022/01/10 02:10:55;;;;;;;3.67;2.30;;;;;;;4.91;76.39;93239.38;5106869;28;20032;-72
2022/01/10 02:13:20;;;;;;;3.28;2.40;;;;;;;4.92;76.53;93230.69;5112630;28;20027;-72
2022/01/10 02:15:56;;;;;;;4.63;2.58;;;;;;;4.90;76.27;93229.19;5121172;27;20382;-72
2022/01/10 02:18:21;;;;;;;4.50;3.10;;;;;;;4.95;76.87;93229.59;5110084;28;20023;-73
2022/01/10 02:20:47;;;;;;;3.30;2.20;;;;;;;4.94;76.70;93228.00;5116343;27;20080;-72
2022/01/10 02:23:13;;;;;;;3.83;2.25;;;;;;;4.92;76.55;93230.69;5109677;28;20083;-72
2022/01/10 02:25:39;;;;;;;3.58;2.25;;;;;;;4.96;76.78;93233.84;5126412;27;20030;-72
2022/01/10 02:28:04;;;;;;;2.97;2.00;;;;;;;4.99;76.52;93225.03;5132021;27;20031;-72
2022/01/10 02:30:30;;;;;;;2.97;2.05;;;;;;;5.00;76.59;93236.94;5099439;28;20051;-72
2022/01/10 02:32:57;;;;;;;5.80;3.78;;;;;;;5.00;76.53;93227.47;5129535;27;20057;-73
2022/01/10 02:35:27;;;;;;;10.00;4.90;;;;;;;4.97;76.69;93221.78;5117708;27;20525;-72
2022/01/10 02:37:54;;;;;;;8.43;3.70;;;;;;;4.98;77.07;93231.09;5112172;27;20110;-72
2022/01/10 02:40:22;;;;;;;5.82;2.72;;;;;;;4.99;76.91;93227.59;5112287;28;20041;-72
2022/01/10 02:42:47;;;;;;;5.13;3.10;;;;;;;4.99;77.01;93227.59;5079100;28;20044;-72
2022/01/10 02:45:13;;;;;;;5.30;2.45;;;;;;;5.00;76.86;93237.75;5111178;27;20031;-73
2022/01/10 02:47:38;;;;;;;5.18;2.47;;;;;;;4.99;77.12;93235.34;5133161;27;20027;-72
2022/01/10 02:50:05;;;;;;;5.63;2.63;;;;;;;4.98;77.25;93231.91;5132994;27;20034;-72
2022/01/10 02:52:30;;;;;;;5.00;3.35;;;;;;;5.01;77.31;93243.72;5115857;27;20035;-72
2022/01/10 02:55:00;;;;;;;7.00;5.00;;;;;;;5.02;76.96;93242.78;5132828;27;20053;-73
2022/01/10 02:57:25;;;;;;;10.48;7.22;;;;;;;4.96;77.57;93243.28;5117994;27;20481;-72
2022/01/10 02:59:51;;;;;;;10.23;5.60;;;;;;;4.87;77.90;93243.13;5113347;28;20020;-73
2022/01/10 03:02:21;;;;;;;9.98;7.05;;;;;;;4.79;78.12;93237.00;5113353;28;20043;-72
2022/01/10 03:04:46;;;;;;;12.07;7.68;;;;;;;4.86;78.10;93251.81;5112237;28;20039;-72
2022/01/10 03:07:15;;;;;;;14.82;10.48;;;;;;;4.86;78.04;93244.09;5095022;28;20023;-72
2022/01/10 03:09:41;;;;;;;21.80;13.07;;;;;;;4.86;77.72;93230.41;5113154;28;20024;-72
2022/01/10 03:12:09;;;;;;;19.23;12.98;;;;;;;4.88;77.97;93249.13;5094921;28;20031;-73
2022/01/10 03:14:35;;;;;;;23.88;14.98;;;;;;;4.85;78.05;93250.19;5112222;28;20031;-72
2022/01/10 03:17:00;;;;;;;23.67;15.98;;;;;;;4.82;77.92;93235.00;5112135;28;20039;-72
2022/01/10 03:19:25;;;;;;;21.83;13.90;;;;;;;4.91;77.69;93254.00;5111793;28;20031;-73
2022/01/10 03:21:51;;;;;;;28.35;14.93;;;;;;;4.83;78.16;93235.81;5111925;28;20019;-72
2022/01/10 03:24:16;;;;;;;28.63;18.60;;;;;;;4.89;77.94;93243.00;5111664;28;20031;-72
2022/01/10 03:26:42;;;;;;;32.95;17.42;;;;;;;4.91;77.69;93244.50;5111898;28;20036;-73
2022/01/10 03:29:07;;;;;;;39.58;20.70;;;;;;;4.88;78.15;93244.78;5112808;28;20076;-72
2022/01/10 03:31:33;;;;;;;48.00;23.98;;;;;;;4.93;77.72;93245.19;5111853;28;20104;-72
2022/01/10 03:33:58;;;;;;;55.50;25.27;;;;;;;4.89;77.79;93248.16;5127872;27;20409;-72
2022/01/10 03:36:23;;;;;;;51.20;24.70;;;;;;;4.86;78.00;93244.09;5114244;27;20034;-72
2022/01/10 03:38:49;;;;;;;47.35;25.42;;;;;;;4.86;77.95;93246.66;5133146;27;20027;-73
2022/01/10 03:41:14;;;;;;;47.88;25.15;;;;;;;4.80;77.88;93231.75;5131070;27;20035;-72
2022/01/10 03:43:40;;;;;;;44.10;24.08;;;;;;;4.85;77.86;93246.81;5119536;27;20027;-72
2022/01/10 03:46:06;;;;;;;49.45;23.92;;;;;;;4.92;77.58;93253.84;5094388;28;20031;-72
2022/01/10 03:48:32;;;;;;;48.40;23.65;;;;;;;4.90;77.52;93253.19;5113358;27;20030;-72
2022/01/10 03:50:58;;;;;;;40.90;19.52;;;;;;;4.72;77.70;93226.44;5114341;27;20032;-72
2022/01/10 03:53:23;;;;;;;36.08;16.67;;;;;;;4.79;77.82;93253.28;5122647;27;20028;-72
2022/01/10 03:55:48;;;;;;;30.70;14.60;;;;;;;4.70;78.61;93262.56;5094023;28;20109;-72
2022/01/10 03:58:14;;;;;;;33.55;16.08;;;;;;;4.69;78.21;93255.00;5123865;27;20083;-72
2022/01/10 04:00:40;;;;;;;29.83;14.43;;;;;;;4.71;78.08;93263.41;5114558;27;20027;-72
2022/01/10 04:03:07;;;;;;;28.25;12.40;;;;;;;4.70;78.13;93267.72;5132973;27;20382;-72
2022/01/10 04:05:32;;;;;;;26.38;13.32;;;;;;;4.53;78.40;93242.59;5131337;27;20486;-72
2022/01/10 04:07:58;;;;;;;32.03;15.55;;;;;;;4.69;78.30;93265.28;5132628;27;20033;-72
2022/01/10 04:10:23;;;;;;;29.58;16.52;;;;;;;4.57;78.10;93246.56;5102791;28;20069;-73
2022/01/10 04:12:49;;;;;;;25.55;13.27;;;;;;;4.61;78.42;93263.34;5112067;28;20417;-72
2022/01/10 04:15:14;;;;;;;31.15;15.55;;;;;;;4.70;78.30;93269.47;5110585;28;20028;-72
2022/01/10 04:17:40;;;;;;;31.67;15.93;;;;;;;4.74;78.11;93265.72;5110781;28;20031;-72
2022/01/10 04:20:06;;;;;;;29.65;16.83;;;;;;;4.74;77.92;93265.72;5111867;28;20039;-72
2022/01/10 04:22:31;;;;;;;35.33;20.52;;;;;;;4.80;77.76;93265.19;5110810;28;20027;-73
2022/01/10 04:24:56;;;;;;;39.42;21.60;;;;;;;4.73;77.93;93271.78;5110571;28;20035;-72
2022/01/10 04:27:22;;;;;;;38.08;21.15;;;;;;;4.70;78.27;93280.56;5110671;28;20312;-72
2022/01/10 04:29:47;;;;;;;32.85;18.30;;;;;;;4.70;77.99;93278.00;5110160;28;20016;-72
2022/01/10 04:32:13;;;;;;;34.17;18.10;;;;;;;4.67;77.54;93285.16;5110557;28;20055;-72
2022/01/10 04:34:39;;;;;;;30.88;16.20;;;;;;;4.74;77.38;93290.63;5093320;28;20024;-72
2022/01/10 04:37:05;;;;;;;33.92;16.65;;;;;;;4.69;77.34;93299.53;5112077;28;20518;-72
2022/01/10 04:39:30;;;;;;;29.92;15.77;;;;;;;4.70;77.60;93292.63;5111815;28;20110;-72
2022/01/10 04:41:55;;;;;;;28.13;15.00;;;;;;;4.68;77.36;93297.09;5110507;28;20117;-72
2022/01/10 04:44:21;;;;;;;24.75;15.32;;;;;;;4.67;77.20;93298.03;5111505;28;20024;-72
2022/01/10 04:46:47;;;;;;;58.72;35.25;;;;;;;4.75;76.92;93305.13;5120582;27;20031;-72
2022/01/10 04:49:21;;;;;;;56.80;23.17;;;;;;;4.68;76.91;93303.06;5131091;27;20027;-72
2022/01/10 04:51:47;;;;;;;55.45;24.88;;;;;;;4.64;76.97;93304.25;5132460;27;20042;-73
2022/01/10 04:54:13;;;;;;;43.97;22.05;;;;;;;4.66;77.04;93304.94;5113678;27;20488;-73
2022/01/10 04:56:38;;;;;;;40.70;19.75;;;;;;;4.66;77.23;93310.09;5113254;27;20031;-73
2022/01/10 04:59:04;;;;;;;41.30;20.00;;;;;;;4.62;77.29;93311.28;5120154;27;20034;-73
2022/01/10 05:01:29;;;;;;;35.92;18.85;;;;;;;4.64;77.05;93313.72;5132158;27;20431;-72
2022/01/10 05:03:55;;;;;;;34.50;19.58;;;;;;;4.61;77.18;93319.13;5118211;28;20035;-73
2022/01/10 05:06:20;;;;;;;25.23;13.75;;;;;;;4.56;76.88;93305.84;5093161;28;20398;-73
2022/01/10 05:08:45;;;;;;;17.23;10.32;;;;;;;4.36;77.47;93318.56;5122064;28;20570;-73
2022/01/10 05:11:11;;;;;;;18.38;10.05;;;;;;;4.36;77.51;93316.00;5130604;27;20034;-73
2022/01/10 05:13:36;;;;;;;22.65;11.05;;;;;;;4.27;77.39;93296.22;5131624;27;20023;-72
2022/01/10 05:16:02;;;;;;;17.42;9.10;;;;;;;4.35;77.39;93301.53;5120109;27;20032;-73
2022/01/10 05:18:27;;;;;;;16.90;10.60;;;;;;;4.44;77.43;93318.75;5092854;28;20034;-73
2022/01/10 05:20:53;;;;;;;24.48;13.40;;;;;;;4.42;77.41;93315.50;5109959;28;20032;-73
2022/01/10 05:23:18;;;;;;;20.95;12.52;;;;;;;4.30;77.61;93303.66;5109891;28;20040;-72
2022/01/10 05:25:44;;;;;;;20.92;12.52;;;;;;;4.40;77.46;93317.41;5116384;28;20020;-73
2022/01/10 05:28:11;;;;;;;22.13;13.43;;;;;;;4.40;77.53;93325.13;5129765;27;20030;-73
2022/01/10 05:30:37;;;;;;;22.50;12.43;;;;;;;4.47;77.40;93339.09;5131465;27;20547;-73
2022/01/10 05:33:02;;;;;;;18.10;12.75;;;;;;;4.48;77.68;93329.59;5130362;28;20030;-74
2022/01/10 05:35:28;;;;;;;18.25;11.48;;;;;;;4.53;77.04;93336.94;5109708;28;20040;-73
2022/01/10 05:37:53;;;;;;;17.70;10.57;;;;;;;4.44;77.69;93335.97;5092724;28;20035;-73
2022/01/10 05:40:19;;;;;;;16.20;9.10;;;;;;;4.43;77.10;93336.88;5110953;28;20039;-73
2022/01/10 05:42:45;;;;;;;13.27;9.30;;;;;;;4.43;77.31;93342.88;5109563;28;20032;-73
2022/01/10 05:45:10;;;;;;;13.85;9.05;;;;;;;4.25;77.22;93313.50;5092774;28;20054;-73
2022/01/10 05:47:40;;;;;;;13.93;9.73;;;;;;;4.37;77.51;93332.25;5110186;28;20410;-73
2022/01/10 05:50:07;;;;;;;18.88;9.73;;;;;;;4.43;77.37;93345.44;5093362;28;20085;-73
2022/01/10 05:52:32;;;;;;;18.60;10.05;;;;;;;4.43;76.93;93344.59;5092762;28;20027;-73
2022/01/10 05:54:58;;;;;;;17.70;9.70;;;;;;;4.34;77.13;93337.63;5111445;28;20493;-73
2022/01/10 05:57:23;;;;;;;16.52;8.82;;;;;;;4.35;77.58;93355.53;5109586;28;20023;-73
2022/01/10 05:59:49;;;;;;;16.20;8.93;;;;;;;4.37;77.47;93350.25;5095787;28;20016;-73
2022/01/10 06:02:15;;;;;;;28.30;13.40;;;;;;;4.39;77.33;93356.09;5114209;27;20028;-73
2022/01/10 06:04:40;;;;;;;16.58;9.57;;;;;;;4.29;77.72;93348.31;5114363;28;20047;-73
2022/01/10 06:07:06;;;;;;;12.10;8.02;;;;;;;4.30;77.51;93349.94;5114496;28;20507;-73
2022/01/10 06:09:31;;;;;;;11.70;7.85;;;;;;;4.37;77.43;93357.97;5096191;28;20023;-73
2022/01/10 06:11:57;;;;;;;13.07;8.55;;;;;;;4.40;77.47;93362.84;5114328;27;20410;-73
2022/01/10 06:14:22;;;;;;;15.45;9.23;;;;;;;4.31;78.20;93349.00;5115255;27;20092;-73
2022/01/10 06:16:47;;;;;;;16.95;10.20;;;;;;;4.38;78.33;93359.59;5114737;27;20036;-73
2022/01/10 06:19:13;;;;;;;16.92;11.80;;;;;;;4.39;78.38;93361.22;5117142;27;20458;-73
2022/01/10 06:21:38;;;;;;;20.88;11.70;;;;;;;4.41;78.65;93367.06;5113121;28;20036;-73
2022/01/10 06:24:04;;;;;;;28.92;16.67;;;;;;;4.39;78.08;93358.66;5112879;28;20219;-73
2022/01/10 06:26:29;;;;;;;38.88;20.60;;;;;;;4.40;78.14;93368.00;5123319;27;20038;-73
2022/01/10 06:28:55;;;;;;;40.05;21.80;;;;;;;4.44;78.11;93372.75;5118745;27;20031;-73
2022/01/10 06:31:20;;;;;;;38.78;20.88;;;;;;;4.37;78.16;93363.09;5099177;27;20043;-73
2022/01/10 06:33:45;;;;;;;39.83;23.55;;;;;;;4.38;78.13;93370.69;5123783;27;20011;-73
2022/01/10 06:36:11;;;;;;;39.35;22.40;;;;;;;4.26;78.58;93374.25;5132724;27;20058;-73
2022/01/10 06:38:36;;;;;;;36.95;18.58;;;;;;;4.05;79.22;93373.44;5135345;27;20072;-72
2022/01/10 06:41:02;;;;;;;22.80;12.50;;;;;;;4.02;79.10;93370.16;5116808;27;20097;-73
2022/01/10 06:43:27;;;;;;;24.40;13.50;;;;;;;4.19;78.94;93375.69;5115706;27;20031;-72
2022/01/10 06:45:52;;;;;;;23.23;13.02;;;;;;;4.22;78.98;93380.59;5122344;27;20023;-73
2022/01/10 06:48:18;;;;;;;24.30;13.73;;;;;;;4.20;78.83;93378.13;5125031;27;20094;-72
2022/01/10 06:50:46;;;;;;;27.27;14.30;;;;;;;4.22;79.23;93389.13;5122913;27;20291;-72
2022/01/10 06:53:16;;;;;;;29.15;16.05;;;;;;;4.25;79.21;93388.88;5127340;27;20031;-73
2022/01/10 06:55:41;;;;;;;28.83;16.30;;;;;;;4.29;79.35;93392.03;5115955;27;20040;-72
2022/01/10 06:58:06;;;;;;;33.38;19.13;;;;;;;4.31;79.25;93397.84;5122811;27;20023;-73
2022/01/10 07:00:32;;;;;;;51.20;26.92;;;;;;;4.32;78.88;93386.63;5129240;27;20042;-73
2022/01/10 07:02:58;;;;;;;47.17;24.20;;;;;;;4.26;78.44;93366.53;5111073;27;20031;-72
2022/01/10 07:05:23;;;;;;;50.58;23.98;;;;;;;4.38;78.53;93391.28;5109739;27;20038;-72
2022/01/10 07:07:48;;;;;;;35.25;19.15;;;;;;;4.34;78.23;93389.06;5117041;27;20551;-72
2022/01/10 07:10:14;;;;;;;29.08;14.20;;;;;;;4.41;77.75;93397.94;5095616;27;20035;-72
2022/01/10 07:12:39;;;;;;;23.45;12.95;;;;;;;4.39;77.87;93392.91;5112046;27;20100;-72
2022/01/10 07:15:05;;;;;;;21.20;10.95;;;;;;;4.28;78.16;93395.53;5099997;27;20084;-72
2022/01/10 07:17:32;;;;;;;18.98;10.90;;;;;;;4.27;78.45;93401.59;5123528;27;20111;-73
2022/01/10 07:19:58;;;;;;;18.42;10.98;;;;;;;4.30;78.58;93401.34;5118306;27;20057;-72
2022/01/10 07:22:23;;;;;;;17.70;10.50;;;;;;;4.18;78.49;93395.47;5115727;27;20050;-73
2022/01/10 07:24:49;;;;;;;20.70;11.18;;;;;;;4.30;78.42;93409.06;5091306;27;20485;-73
2022/01/10 07:27:14;;;;;;;21.95;10.35;;;;;;;4.22;78.26;93393.44;5106475;27;20043;-73
2022/01/10 07:29:39;;;;;;;16.80;10.20;;;;;;;4.31;78.07;93405.56;5119488;27;20023;-75
2022/01/10 07:32:06;;;;;;;15.60;9.48;;;;;;;4.25;77.98;93400.91;5116533;27;20423;-76
2022/01/10 07:34:31;;;;;;;19.77;10.15;;;;;;;4.34;77.92;93407.88;5116070;27;20121;-74
2022/01/10 07:36:57;;;;;;;16.42;10.35;;;;;;;4.45;77.62;93412.97;5103395;27;20040;-73
2022/01/10 07:39:22;;;;;;;20.33;11.43;;;;;;;4.43;77.91;93425.16;5112813;27;20039;-75
2022/01/10 07:41:47;;;;;;;25.73;13.75;;;;;;;4.44;78.17;93423.38;5095562;28;20043;-75
2022/01/10 07:44:13;;;;;;;34.65;18.65;;;;;;;4.43;77.90;93425.16;5077329;28;20539;-76
2022/01/10 07:46:38;;;;;;;37.00;19.10;;;;;;;4.47;78.23;93429.09;5122489;27;20034;-74
2022/01/10 07:49:04;;;;;;;32.35;17.42;;;;;;;4.42;77.70;93423.50;5119321;27;20023;-73
2022/01/10 07:51:29;;;;;;;28.67;15.35;;;;;;;4.52;77.40;93433.06;5120300;27;20034;-73
2022/01/10 07:53:55;;;;;;;39.58;20.20;;;;;;;4.55;77.00;93432.81;5127220;27;20068;-73
2022/01/10 07:56:20;;;;;;;43.58;21.58;;;;;;;4.57;76.89;93433.47;5102469;27;20031;-74
2022/01/10 07:58:50;;;;;;;41.72;21.33;;;;;;;4.54;76.88;93428.59;5117571;27;20032;-73
2022/01/10 08:01:15;;;;;;;45.60;22.48;;;;;;;4.55;77.06;93431.06;5108125;27;20046;-73
2022/01/10 08:03:41;;;;;;;64.50;30.65;;;;;;;4.25;77.32;93417.16;5101789;27;20115;-73
2022/01/10 08:06:06;;;;;;;43.33;20.13;;;;;;;4.42;77.57;93432.97;5122464;27;20031;-73
2022/01/10 08:08:33;;;;;;;30.35;14.88;;;;;;;4.30;77.43;93427.06;5110983;27;20481;-73
2022/01/10 08:10:59;;;;;;;29.23;15.55;;;;;;;4.40;77.59;93437.41;5114834;27;20068;-73
2022/01/10 08:13:24;;;;;;;44.33;19.95;;;;;;;4.36;77.74;93439.44;5122366;27;20072;-73
2022/01/10 08:15:50;;;;;;;41.10;18.10;;;;;;;4.35;77.54;93435.22;5116316;27;20375;-73
2022/01/10 08:18:16;;;;;;;55.10;23.85;;;;;;;4.23;78.57;93431.06;5128049;27;20061;-73
2022/01/10 08:20:41;;;;;;;35.80;18.23;;;;;;;4.12;78.81;93442.19;5130933;27;20031;-73
2022/01/10 08:23:06;;;;;;;42.58;21.70;;;;;;;4.16;79.24;93445.34;5131306;27;20035;-73
2022/01/10 08:25:32;;;;;;;36.47;17.85;;;;;;;4.14;79.12;93442.09;5131015;27;20034;-73
2022/01/10 08:27:58;;;;;;;42.47;21.88;;;;;;;4.22;79.09;93432.81;5132327;27;20582;-73
2022/01/10 08:30:23;;;;;;;31.25;15.70;;;;;;;4.23;78.95;93438.75;5113577;27;20047;-73
2022/01/10 08:32:50;;;;;;;33.88;18.50;;;;;;;4.20;79.18;93439.00;5113912;27;20019;-73
2022/01/10 08:35:20;;;;;;;25.33;14.15;;;;;;;4.25;79.14;93444.63;5130936;27;20027;-73
2022/01/10 08:37:45;;;;;;;23.02;13.40;;;;;;;4.29;79.39;93443.44;5131053;27;20019;-73
2022/01/10 08:40:11;;;;;;;30.60;19.55;;;;;;;4.33;79.47;93438.88;5130864;27;20038;-73
2022/01/10 08:42:37;;;;;;;22.73;12.25;;;;;;;4.42;79.13;93443.25;5130786;27;20027;-73
2022/01/10 08:45:03;;;;;;;14.18;8.13;;;;;;;4.22;79.61;93435.38;5130837;27;20035;-73
2022/01/10 08:47:29;;;;;;;19.83;9.55;;;;;;;4.32;79.64;93448.34;5096688;27;20035;-73
2022/01/10 08:49:55;;;;;;;32.25;14.43;;;;;;;4.41;79.40;93447.59;5130703;27;20015;-73
2022/01/10 08:52:20;;;;;;;22.92;11.52;;;;;;;4.35;79.75;93449.84;5096670;27;20037;-76
2022/01/10 08:54:48;;;;;;;16.52;8.98;;;;;;;4.24;79.95;93446.38;5130646;27;20027;-73
2022/01/10 08:57:14;;;;;;;15.07;8.52;;;;;;;4.35;79.61;93450.66;5130683;27;20027;-73
2022/01/10 08:59:39;;;;;;;20.85;10.30;;;;;;;4.37;79.98;93448.75;5113521;27;20038;-73
2022/01/10 09:02:04;;;;;;;17.55;9.35;;;;;;;4.33;80.16;93449.16;5130818;27;20031;-73
2022/01/10 09:04:30;;;;;;;25.67;12.15;;;;;;;4.35;79.86;93449.84;5131761;27;20510;-73
2022/01/10 09:06:55;;;;;;;30.25;14.73;;;;;;;4.33;79.47;93439.69;5132331;27;20034;-73
2022/01/10 09:09:21;;;;;;;24.23;14.50;;;;;;;4.45;79.58;93443.00;5096337;28;20026;-73
2022/01/10 09:11:47;;;;;;;19.25;11.15;;;;;;;4.40;79.78;93443.41;5113716;28;20126;-73
2022/01/10 09:14:12;;;;;;;23.50;11.85;;;;;;;4.43;79.80;93440.56;5131861;27;20098;-73
2022/01/10 09:16:38;;;;;;;17.73;9.98;;;;;;;4.48;78.65;93461.59;5130735;28;20038;-74
2022/01/10 09:19:04;;;;;;;19.13;10.02;;;;;;;4.55;79.05;93448.25;5113316;28;20023;-75
2022/01/10 09:21:29;;;;;;;21.45;11.43;;;;;;;4.54;79.41;93449.16;5130604;28;20035;-73
2022/01/10 09:23:54;;;;;;;20.92;12.13;;;;;;;4.68;79.10;93448.84;5113343;28;20024;-73
2022/01/10 09:26:20;;;;;;;20.38;12.05;;;;;;;4.64;78.77;93448.28;5130517;28;20533;-73
2022/01/10 09:28:45;;;;;;;21.65;11.50;;;;;;;4.58;78.85;93451.38;5113196;28;20036;-73
2022/01/10 09:31:12;;;;;;;24.42;12.63;;;;;;;4.62;78.76;93449.38;5129970;28;20063;-73
2022/01/10 09:33:37;;;;;;;25.27;13.85;;;;;;;4.53;78.93;93450.94;5113852;28;20027;-73
2022/01/10 09:36:03;;;;;;;29.38;13.98;;;;;;;4.48;79.18;93450.47;5134576;27;20054;-73
2022/01/10 09:38:28;;;;;;;23.27;12.07;;;;;;;4.45;78.87;93456.69;5115851;28;20027;-73
2022/01/10 09:40:54;;;;;;;27.52;13.32;;;;;;;4.44;79.17;93451.69;5098860;28;20413;-73
2022/01/10 09:43:19;;;;;;;25.63;13.82;;;;;;;4.39;79.90;93453.78;5134110;27;20411;-73
2022/01/10 09:45:45;;;;;;;25.63;13.63;;;;;;;4.44;79.67;93452.50;5115827;28;20035;-73
2022/01/10 09:48:11;;;;;;;27.23;12.65;;;;;;;4.40;79.65;93453.69;5132905;28;20027;-73
2022/01/10 09:50:36;;;;;;;30.85;14.77;;;;;;;4.40;80.03;93442.56;5132739;27;20261;-73
2022/01/10 09:53:01;;;;;;;25.08;13.73;;;;;;;4.44;79.71;93444.78;5134044;27;20034;-73
2022/01/10 09:55:31;;;;;;;25.83;14.15;;;;;;;4.28;79.69;93426.38;5132683;28;20042;-73
2022/01/10 09:57:57;;;;;;;30.13;15.60;;;;;;;4.44;80.09;93452.50;5132651;27;20062;-73
2022/01/10 10:00:22;;;;;;;33.38;16.30;;;;;;;4.51;79.95;93452.00;5133896;27;20506;-73
2022/01/10 10:02:48;;;;;;;28.92;15.95;;;;;;;4.53;79.79;93439.81;5098447;28;20039;-73
2022/01/10 10:05:14;;;;;;;28.23;16.20;;;;;;;4.62;79.69;93446.78;5115494;28;20473;-73
2022/01/10 10:07:39;;;;;;;31.70;16.67;;;;;;;4.64;79.39;93444.91;5132477;28;20050;-73
2022/01/10 10:10:11;;;;;;;40.47;18.40;;;;;;;4.77;78.95;93444.75;5115337;28;20458;-73
2022/01/10 10:12:41;;;;;;;31.90;16.55;;;;;;;4.70;78.60;93442.66;5133669;27;20024;-73
2022/01/10 10:15:08;;;;;;;37.42;16.83;;;;;;;4.68;78.77;93447.13;5132395;28;20035;-73
2022/01/10 10:17:35;;;;;;;37.70;16.13;;;;;;;4.61;78.86;93447.75;5133649;27;20473;-74
2022/01/10 10:20:15;;;;;;;42.10;17.55;;;;;;;4.67;78.78;93445.47;5115446;28;20023;-73
2022/01/10 10:22:41;;;;;;;51.58;20.50;;;;;;;4.66;78.24;93432.75;5132162;28;20042;-71
2022/01/10 10:25:07;;;;;;;38.08;17.85;;;;;;;4.73;78.30;93446.72;5132222;28;20095;-73
2022/01/10 10:27:41;;;;;;;37.88;17.02;;;;;;;4.77;78.04;93448.13;5115175;28;20027;-73
2022/01/10 10:30:13;;;;;;;38.08;18.50;;;;;;;4.74;78.10;93434.72;5018179;27;2747966;-73
2022/01/10 10:32:39;;;;;;;33.53;15.85;;;;;;;4.78;78.25;93448.94;5133375;27;20468;-72
2022/01/10 10:35:05;;;;;;;46.03;20.20;;;;;;;4.80;78.56;93452.22;5133280;27;20027;-73
2022/01/10 10:37:34;;;;;;;41.28;16.40;;;;;;;4.83;78.35;93446.81;5133227;27;20031;-73
2022/01/10 10:40:02;;;;;;;45.80;19.25;;;;;;;4.85;78.55;93447.50;5116410;27;20080;-73
2022/01/10 10:42:29;;;;;;;50.05;30.55;;;;;;;4.81;78.80;93444.34;5116273;27;20027;-72
2022/01/10 10:44:54;;;;;;;40.30;21.33;;;;;;;4.80;79.03;93447.06;5132868;27;20076;-72
2022/01/10 10:47:21;;;;;;;34.13;16.70;;;;;;;4.81;78.84;93444.34;5133042;27;20030;-73
2022/01/10 10:49:50;;;;;;;39.70;18.42;;;;;;;4.83;79.00;93445.03;5132947;27;20106;-72
2022/01/10 10:52:16;;;;;;;31.70;16.88;;;;;;;4.84;79.02;93451.81;5133004;27;20454;-72
2022/01/10 10:54:41;;;;;;;39.95;21.13;;;;;;;4.82;79.56;93452.88;5132820;27;20037;-73
2022/01/10 10:57:08;;;;;;;38.00;18.42;;;;;;;4.88;79.08;93448.06;5115838;27;20071;-72
2022/01/10 10:59:36;;;;;;;41.50;19.80;;;;;;;4.92;79.08;93448.63;5115725;27;20476;-72
2022/01/10 11:02:03;;;;;;;30.85;17.33;;;;;;;4.96;78.70;93457.72;5133051;27;20058;-72
2022/01/10 11:04:29;;;;;;;27.38;13.50;;;;;;;4.97;78.60;93458.53;5132480;27;20038;-72
2022/01/10 11:06:55;;;;;;;26.63;13.35;;;;;;;4.94;78.45;93449.31;5132990;27;20027;-73
2022/01/10 11:09:20;;;;;;;23.20;13.43;;;;;;;4.88;78.97;93449.81;5115500;27;20034;-72
2022/01/10 11:11:46;;;;;;;25.42;13.00;;;;;;;4.73;79.19;93446.72;5115660;27;20027;-72
2022/01/10 11:14:14;;;;;;;19.80;10.60;;;;;;;4.89;78.84;93459.16;5115365;27;20038;-73
2022/01/10 11:16:41;;;;;;;19.58;11.18;;;;;;;4.83;78.80;93460.47;5115867;27;20057;-72
2022/01/10 11:19:13;;;;;;;18.05;10.27;;;;;;;4.86;78.87;93464.56;5115468;27;20038;-72
2022/01/10 11:21:40;;;;;;;21.90;11.25;;;;;;;4.69;78.44;93458.22;5134121;27;20032;-72
2022/01/10 11:24:05;;;;;;;35.03;18.40;;;;;;;4.60;79.50;93448.69;5115259;27;20516;-72
2022/01/10 11:26:38;;;;;;;33.70;17.90;;;;;;;4.75;79.07;93459.47;5132418;27;20047;-73
2022/01/10 11:29:03;;;;;;;33.03;18.23;;;;;;;4.78;78.69;93462.63;5132250;27;20019;-72
2022/01/10 11:31:29;;;;;;;32.97;19.20;;;;;;;4.74;78.54;93466.38;5115008;27;20428;-73